sensor_id;sensor_type;location;lat;lon;timestamp;P1;durP1;ratioP1;P2;durP2;ratioP2
72209;SDS011;60113;48.762;12.302;2022-10-18T00:01:57;93.15;;;28.33;;
72209;SDS011;60113;48.762;12.302;2022-10-18T00:04:23;124.68;;;36.40;;
72209;SDS011;60113;48.762;12.302;2022-10-18T00:06:48;126.75;;;39.38;;
72209;SDS011;60113;48.762;12.302;2022-10-18T00:09:14;99.53;;;31.30;;
72209;SDS011;60113;48.762;12.302;2022-10-18T00:11:40;82.05;;;28.05;;
72209;SDS011;60113;48.762;12.302;2022-10-18T00:14:05;67.47;;;25.77;;
72209;SDS011;60113;48.762;12.302;2022-10-18T00:16:31;69.25;;;25.13;;
72209;SDS011;60113;48.762;12.302;2022-10-18T00:18:56;75.47;;;25.58;;
72209;SDS011;60113;48.762;12.302;2022-10-18T00:21:22;56.38;;;26.00;;
72209;SDS011;60113;48.762;12.302;2022-10-18T00:23:49;81.93;;;26.02;;
72209;SDS011;60113;48.762;12.302;2022-10-18T00:26:17;68.20;;;23.17;;
72209;SDS011;60113;48.762;12.302;2022-10-18T00:28:58;63.97;;;24.02;;
72209;SDS011;60113;48.762;12.302;2022-10-18T00:31:26;89.78;;;28.55;;
72209;SDS011;60113;48.762;12.302;2022-10-18T00:33:55;53.30;;;22.75;;
72209;SDS011;60113;48.762;12.302;2022-10-18T00:36:22;52.45;;;20.67;;
72209;SDS011;60113;48.762;12.302;2022-10-18T00:38:49;49.53;;;19.63;;
72209;SDS011;60113;48.762;12.302;2022-10-18T00:41:16;58.90;;;18.75;;
72209;SDS011;60113;48.762;12.302;2022-10-18T00:43:55;48.00;;;18.30;;
72209;SDS011;60113;48.762;12.302;2022-10-18T00:46:24;49.03;;;16.70;;
72209;SDS011;60113;48.762;12.302;2022-10-18T00:48:52;45.58;;;16.00;;
72209;SDS011;60113;48.762;12.302;2022-10-18T00:51:20;46.15;;;16.70;;
72209;SDS011;60113;48.762;12.302;2022-10-18T00:53:47;56.28;;;19.23;;
72209;SDS011;60113;48.762;12.302;2022-10-18T00:56:14;56.50;;;19.50;;
72209;SDS011;60113;48.762;12.302;2022-10-18T00:58:39;54.42;;;19.55;;
72209;SDS011;60113;48.762;12.302;2022-10-18T01:01:06;64.00;;;24.08;;
72209;SDS011;60113;48.762;12.302;2022-10-18T01:03:32;73.60;;;26.58;;
72209;SDS011;60113;48.762;12.302;2022-10-18T01:05:58;65.47;;;24.30;;
72209;SDS011;60113;48.762;12.302;2022-10-18T01:08:41;55.55;;;21.48;;
72209;SDS011;60113;48.762;12.302;2022-10-18T01:14:16;51.30;;;20.63;;
72209;SDS011;60113;48.762;12.302;2022-10-18T01:16:59;55.25;;;19.98;;
72209;SDS011;60113;48.762;12.302;2022-10-18T01:22:35;49.38;;;18.70;;
72209;SDS011;60113;48.762;12.302;2022-10-18T01:25:16;71.40;;;22.23;;
72209;SDS011;60113;48.762;12.302;2022-10-18T01:27:46;85.65;;;27.23;;
72209;SDS011;60113;48.762;12.302;2022-10-18T01:33:25;88.90;;;28.05;;
72209;SDS011;60113;48.762;12.302;2022-10-18T01:35:59;85.05;;;27.20;;
72209;SDS011;60113;48.762;12.302;2022-10-18T01:38:57;96.75;;;30.42;;
72209;SDS011;60113;48.762;12.302;2022-10-18T01:41:25;101.03;;;30.35;;
72209;SDS011;60113;48.762;12.302;2022-10-18T01:43:55;85.45;;;29.85;;
72209;SDS011;60113;48.762;12.302;2022-10-18T01:46:24;72.07;;;28.65;;
72209;SDS011;60113;48.762;12.302;2022-10-18T01:48:53;67.75;;;27.80;;
72209;SDS011;60113;48.762;12.302;2022-10-18T01:51:24;79.05;;;33.38;;
72209;SDS011;60113;48.762;12.302;2022-10-18T01:53:52;91.57;;;33.70;;
72209;SDS011;60113;48.762;12.302;2022-10-18T01:56:26;104.88;;;36.75;;
72209;SDS011;60113;48.762;12.302;2022-10-18T02:04:54;75.47;;;29.30;;
72209;SDS011;60113;48.762;12.302;2022-10-18T02:07:41;82.78;;;33.03;;
72209;SDS011;60113;48.762;12.302;2022-10-18T02:10:33;106.03;;;34.33;;
72209;SDS011;60113;48.762;12.302;2022-10-18T02:13:05;128.43;;;36.20;;
72209;SDS011;60113;48.762;12.302;2022-10-18T02:15:33;213.07;;;41.90;;
72209;SDS011;60113;48.762;12.302;2022-10-18T02:18:07;142.80;;;38.33;;
72209;SDS011;60113;48.762;12.302;2022-10-18T02:20:37;154.20;;;38.63;;
72209;SDS011;60113;48.762;12.302;2022-10-18T02:23:05;110.43;;;36.05;;
72209;SDS011;60113;48.762;12.302;2022-10-18T02:25:33;95.88;;;36.80;;
72209;SDS011;60113;48.762;12.302;2022-10-18T02:28:00;104.35;;;34.95;;
72209;SDS011;60113;48.762;12.302;2022-10-18T02:30:32;90.93;;;30.55;;
72209;SDS011;60113;48.762;12.302;2022-10-18T02:33:09;76.20;;;27.50;;
72209;SDS011;60113;48.762;12.302;2022-10-18T02:35:46;78.45;;;25.33;;
72209;SDS011;60113;48.762;12.302;2022-10-18T02:38:17;81.28;;;26.75;;
72209;SDS011;60113;48.762;12.302;2022-10-18T02:40:44;80.07;;;29.02;;
72209;SDS011;60113;48.762;12.302;2022-10-18T02:43:10;98.47;;;31.77;;
72209;SDS011;60113;48.762;12.302;2022-10-18T02:45:38;85.95;;;27.25;;
72209;SDS011;60113;48.762;12.302;2022-10-18T02:48:04;112.80;;;30.52;;
72209;SDS011;60113;48.762;12.302;2022-10-18T02:50:30;120.00;;;36.25;;
72209;SDS011;60113;48.762;12.302;2022-10-18T02:52:56;121.10;;;37.50;;
72209;SDS011;60113;48.762;12.302;2022-10-18T02:55:21;161.80;;;37.15;;
72209;SDS011;60113;48.762;12.302;2022-10-18T02:57:47;149.35;;;33.60;;
72209;SDS011;60113;48.762;12.302;2022-10-18T03:00:12;101.75;;;27.05;;
72209;SDS011;60113;48.762;12.302;2022-10-18T03:02:38;117.50;;;25.40;;
72209;SDS011;60113;48.762;12.302;2022-10-18T03:05:04;98.72;;;24.42;;
72209;SDS011;60113;48.762;12.302;2022-10-18T03:07:29;101.70;;;23.98;;
72209;SDS011;60113;48.762;12.302;2022-10-18T03:09:55;101.32;;;22.08;;
72209;SDS011;60113;48.762;12.302;2022-10-18T03:12:21;84.35;;;22.38;;
72209;SDS011;60113;48.762;12.302;2022-10-18T03:14:47;104.72;;;25.08;;
72209;SDS011;60113;48.762;12.302;2022-10-18T03:17:13;80.90;;;24.02;;
72209;SDS011;60113;48.762;12.302;2022-10-18T03:19:38;191.95;;;32.63;;
72209;SDS011;60113;48.762;12.302;2022-10-18T03:22:04;115.13;;;28.27;;
72209;SDS011;60113;48.762;12.302;2022-10-18T03:24:30;172.13;;;30.98;;
72209;SDS011;60113;48.762;12.302;2022-10-18T03:26:56;145.35;;;28.58;;
72209;SDS011;60113;48.762;12.302;2022-10-18T03:29:21;125.78;;;28.75;;
72209;SDS011;60113;48.762;12.302;2022-10-18T03:31:47;145.68;;;31.65;;
72209;SDS011;60113;48.762;12.302;2022-10-18T03:34:13;160.13;;;33.75;;
72209;SDS011;60113;48.762;12.302;2022-10-18T03:36:40;185.75;;;36.42;;
72209;SDS011;60113;48.762;12.302;2022-10-18T03:39:06;180.93;;;37.42;;
72209;SDS011;60113;48.762;12.302;2022-10-18T03:41:32;149.80;;;35.95;;
72209;SDS011;60113;48.762;12.302;2022-10-18T03:43:58;138.07;;;35.97;;
72209;SDS011;60113;48.762;12.302;2022-10-18T03:46:24;189.65;;;37.70;;
72209;SDS011;60113;48.762;12.302;2022-10-18T03:48:49;176.40;;;36.33;;
72209;SDS011;60113;48.762;12.302;2022-10-18T03:51:15;226.85;;;39.50;;
72209;SDS011;60113;48.762;12.302;2022-10-18T03:53:41;174.10;;;35.97;;
72209;SDS011;60113;48.762;12.302;2022-10-18T03:56:06;285.42;;;43.15;;
72209;SDS011;60113;48.762;12.302;2022-10-18T03:58:31;329.70;;;46.78;;
72209;SDS011;60113;48.762;12.302;2022-10-18T04:00:57;222.70;;;38.95;;
72209;SDS011;60113;48.762;12.302;2022-10-18T04:03:22;167.32;;;37.35;;
72209;SDS011;60113;48.762;12.302;2022-10-18T04:05:48;319.13;;;42.65;;
72209;SDS011;60113;48.762;12.302;2022-10-18T04:08:15;400.70;;;45.60;;
72209;SDS011;60113;48.762;12.302;2022-10-18T04:10:41;268.65;;;39.42;;
72209;SDS011;60113;48.762;12.302;2022-10-18T04:13:08;283.70;;;43.33;;
72209;SDS011;60113;48.762;12.302;2022-10-18T04:15:33;283.08;;;41.13;;
72209;SDS011;60113;48.762;12.302;2022-10-18T04:17:59;262.58;;;40.85;;
72209;SDS011;60113;48.762;12.302;2022-10-18T04:20:26;258.67;;;38.67;;
72209;SDS011;60113;48.762;12.302;2022-10-18T04:22:52;353.38;;;43.15;;
72209;SDS011;60113;48.762;12.302;2022-10-18T04:25:20;260.88;;;40.40;;
72209;SDS011;60113;48.762;12.302;2022-10-18T04:27:46;327.15;;;45.40;;
72209;SDS011;60113;48.762;12.302;2022-10-18T04:30:12;249.25;;;40.70;;
72209;SDS011;60113;48.762;12.302;2022-10-18T04:32:38;259.13;;;36.15;;
72209;SDS011;60113;48.762;12.302;2022-10-18T04:35:04;230.85;;;38.05;;
72209;SDS011;60113;48.762;12.302;2022-10-18T04:37:30;333.70;;;41.20;;
72209;SDS011;60113;48.762;12.302;2022-10-18T04:39:56;466.80;;;56.63;;
72209;SDS011;60113;48.762;12.302;2022-10-18T04:42:22;452.55;;;57.10;;
72209;SDS011;60113;48.762;12.302;2022-10-18T04:44:48;339.83;;;47.72;;
72209;SDS011;60113;48.762;12.302;2022-10-18T04:47:14;352.67;;;43.92;;
72209;SDS011;60113;48.762;12.302;2022-10-18T04:49:40;346.48;;;42.05;;
72209;SDS011;60113;48.762;12.302;2022-10-18T04:52:06;265.45;;;35.00;;
72209;SDS011;60113;48.762;12.302;2022-10-18T04:54:33;254.52;;;36.67;;
72209;SDS011;60113;48.762;12.302;2022-10-18T04:57:00;135.13;;;22.17;;
72209;SDS011;60113;48.762;12.302;2022-10-18T04:59:27;64.47;;;15.35;;
72209;SDS011;60113;48.762;12.302;2022-10-18T05:01:52;67.68;;;15.57;;
72209;SDS011;60113;48.762;12.302;2022-10-18T05:04:18;71.03;;;17.27;;
72209;SDS011;60113;48.762;12.302;2022-10-18T05:06:44;137.82;;;20.33;;
72209;SDS011;60113;48.762;12.302;2022-10-18T05:09:10;81.03;;;18.63;;
72209;SDS011;60113;48.762;12.302;2022-10-18T05:11:36;40.67;;;13.18;;
72209;SDS011;60113;48.762;12.302;2022-10-18T05:14:02;104.20;;;20.88;;
72209;SDS011;60113;48.762;12.302;2022-10-18T05:16:28;112.38;;;22.10;;
72209;SDS011;60113;48.762;12.302;2022-10-18T05:18:54;94.15;;;21.95;;
72209;SDS011;60113;48.762;12.302;2022-10-18T05:21:19;51.60;;;19.52;;
72209;SDS011;60113;48.762;12.302;2022-10-18T05:23:45;52.92;;;19.50;;
72209;SDS011;60113;48.762;12.302;2022-10-18T05:26:11;110.57;;;24.58;;
72209;SDS011;60113;48.762;12.302;2022-10-18T05:28:37;105.35;;;28.30;;
72209;SDS011;60113;48.762;12.302;2022-10-18T05:31:03;107.20;;;29.30;;
72209;SDS011;60113;48.762;12.302;2022-10-18T05:33:30;143.90;;;35.08;;
72209;SDS011;60113;48.762;12.302;2022-10-18T05:35:56;176.88;;;36.92;;
72209;SDS011;60113;48.762;12.302;2022-10-18T05:38:22;108.97;;;30.15;;
72209;SDS011;60113;48.762;12.302;2022-10-18T05:40:48;102.35;;;28.48;;
72209;SDS011;60113;48.762;12.302;2022-10-18T05:43:13;90.43;;;20.30;;
72209;SDS011;60113;48.762;12.302;2022-10-18T05:45:45;184.82;;;42.42;;
72209;SDS011;60113;48.762;12.302;2022-10-18T05:48:12;141.32;;;41.88;;
72209;SDS011;60113;48.762;12.302;2022-10-18T05:50:38;262.13;;;85.53;;
72209;SDS011;60113;48.762;12.302;2022-10-18T05:53:04;159.57;;;48.35;;
72209;SDS011;60113;48.762;12.302;2022-10-18T05:55:29;281.38;;;99.70;;
72209;SDS011;60113;48.762;12.302;2022-10-18T05:57:55;174.68;;;45.83;;
72209;SDS011;60113;48.762;12.302;2022-10-18T06:00:20;123.63;;;36.42;;
72209;SDS011;60113;48.762;12.302;2022-10-18T06:02:46;90.13;;;30.63;;
72209;SDS011;60113;48.762;12.302;2022-10-18T06:05:11;82.88;;;28.90;;
72209;SDS011;60113;48.762;12.302;2022-10-18T06:07:37;70.82;;;27.42;;
72209;SDS011;60113;48.762;12.302;2022-10-18T06:10:02;69.65;;;27.77;;
72209;SDS011;60113;48.762;12.302;2022-10-18T06:12:28;77.50;;;29.63;;
72209;SDS011;60113;48.762;12.302;2022-10-18T06:14:54;91.93;;;36.13;;
72209;SDS011;60113;48.762;12.302;2022-10-18T06:17:19;86.90;;;31.65;;
72209;SDS011;60113;48.762;12.302;2022-10-18T06:19:45;84.57;;;32.83;;
72209;SDS011;60113;48.762;12.302;2022-10-18T06:22:11;80.20;;;31.23;;
72209;SDS011;60113;48.762;12.302;2022-10-18T06:24:36;70.65;;;28.48;;
72209;SDS011;60113;48.762;12.302;2022-10-18T06:27:02;65.05;;;27.25;;
72209;SDS011;60113;48.762;12.302;2022-10-18T06:29:37;77.60;;;31.70;;
72209;SDS011;60113;48.762;12.302;2022-10-18T06:32:03;79.55;;;33.92;;
72209;SDS011;60113;48.762;12.302;2022-10-18T06:34:30;97.25;;;44.17;;
72209;SDS011;60113;48.762;12.302;2022-10-18T06:36:57;58.08;;;27.00;;
72209;SDS011;60113;48.762;12.302;2022-10-18T06:39:22;52.65;;;24.05;;
72209;SDS011;60113;48.762;12.302;2022-10-18T06:41:48;52.20;;;23.08;;
72209;SDS011;60113;48.762;12.302;2022-10-18T06:44:13;42.85;;;20.98;;
72209;SDS011;60113;48.762;12.302;2022-10-18T06:46:39;47.50;;;21.95;;
72209;SDS011;60113;48.762;12.302;2022-10-18T06:49:06;55.50;;;22.13;;
72209;SDS011;60113;48.762;12.302;2022-10-18T06:51:31;38.58;;;20.55;;
72209;SDS011;60113;48.762;12.302;2022-10-18T06:53:57;38.45;;;20.02;;
72209;SDS011;60113;48.762;12.302;2022-10-18T06:56:22;45.25;;;21.27;;
72209;SDS011;60113;48.762;12.302;2022-10-18T06:58:48;39.78;;;18.98;;
72209;SDS011;60113;48.762;12.302;2022-10-18T07:01:15;34.38;;;17.92;;
72209;SDS011;60113;48.762;12.302;2022-10-18T07:03:44;36.10;;;19.27;;
72209;SDS011;60113;48.762;12.302;2022-10-18T07:06:12;37.55;;;19.60;;
72209;SDS011;60113;48.762;12.302;2022-10-18T07:08:39;62.03;;;24.00;;
72209;SDS011;60113;48.762;12.302;2022-10-18T07:11:13;51.22;;;23.42;;
72209;SDS011;60113;48.762;12.302;2022-10-18T07:13:40;73.70;;;25.52;;
72209;SDS011;60113;48.762;12.302;2022-10-18T07:16:10;40.03;;;20.20;;
72209;SDS011;60113;48.762;12.302;2022-10-18T07:18:39;32.83;;;16.67;;
72209;SDS011;60113;48.762;12.302;2022-10-18T07:21:08;32.88;;;12.20;;
72209;SDS011;60113;48.762;12.302;2022-10-18T07:23:39;20.75;;;11.00;;
72209;SDS011;60113;48.762;12.302;2022-10-18T07:26:11;18.17;;;10.77;;
72209;SDS011;60113;48.762;12.302;2022-10-18T07:28:39;39.15;;;11.90;;
72209;SDS011;60113;48.762;12.302;2022-10-18T07:31:05;17.17;;;9.45;;
72209;SDS011;60113;48.762;12.302;2022-10-18T07:33:33;20.42;;;10.15;;
72209;SDS011;60113;48.762;12.302;2022-10-18T07:36:04;24.20;;;8.98;;
72209;SDS011;60113;48.762;12.302;2022-10-18T07:38:33;25.60;;;10.13;;
72209;SDS011;60113;48.762;12.302;2022-10-18T07:41:01;22.58;;;10.38;;
72209;SDS011;60113;48.762;12.302;2022-10-18T07:43:28;22.48;;;10.65;;
72209;SDS011;60113;48.762;12.302;2022-10-18T07:45:55;39.00;;;11.07;;
72209;SDS011;60113;48.762;12.302;2022-10-18T07:48:23;29.42;;;10.93;;
72209;SDS011;60113;48.762;12.302;2022-10-18T07:50:49;18.20;;;9.10;;
72209;SDS011;60113;48.762;12.302;2022-10-18T07:53:14;26.75;;;12.43;;
72209;SDS011;60113;48.762;12.302;2022-10-18T07:55:40;24.75;;;10.18;;
72209;SDS011;60113;48.762;12.302;2022-10-18T07:58:06;26.27;;;10.63;;
72209;SDS011;60113;48.762;12.302;2022-10-18T08:00:31;17.45;;;9.88;;
72209;SDS011;60113;48.762;12.302;2022-10-18T08:02:58;18.17;;;8.98;;
72209;SDS011;60113;48.762;12.302;2022-10-18T08:05:25;12.93;;;6.80;;
72209;SDS011;60113;48.762;12.302;2022-10-18T08:07:52;20.70;;;10.80;;
72209;SDS011;60113;48.762;12.302;2022-10-18T08:10:18;19.63;;;9.18;;
72209;SDS011;60113;48.762;12.302;2022-10-18T08:12:44;34.15;;;11.68;;
72209;SDS011;60113;48.762;12.302;2022-10-18T08:15:09;48.95;;;16.83;;
72209;SDS011;60113;48.762;12.302;2022-10-18T08:17:35;10.55;;;7.28;;
72209;SDS011;60113;48.762;12.302;2022-10-18T08:20:01;14.15;;;7.47;;
72209;SDS011;60113;48.762;12.302;2022-10-18T08:22:26;13.32;;;8.93;;
72209;SDS011;60113;48.762;12.302;2022-10-18T08:24:52;14.95;;;10.18;;
72209;SDS011;60113;48.762;12.302;2022-10-18T08:27:17;16.20;;;10.25;;
72209;SDS011;60113;48.762;12.302;2022-10-18T08:29:42;13.05;;;9.35;;
72209;SDS011;60113;48.762;12.302;2022-10-18T08:32:08;11.68;;;8.10;;
72209;SDS011;60113;48.762;12.302;2022-10-18T08:34:34;18.92;;;9.02;;
72209;SDS011;60113;48.762;12.302;2022-10-18T08:37:07;15.68;;;8.60;;
72209;SDS011;60113;48.762;12.302;2022-10-18T08:44:54;22.70;;;9.38;;
72209;SDS011;60113;48.762;12.302;2022-10-18T08:47:21;22.25;;;8.55;;
72209;SDS011;60113;48.762;12.302;2022-10-18T08:50:01;21.83;;;8.18;;
72209;SDS011;60113;48.762;12.302;2022-10-18T08:55:30;19.98;;;7.72;;
72209;SDS011;60113;48.762;12.302;2022-10-18T08:58:24;18.80;;;8.10;;
72209;SDS011;60113;48.762;12.302;2022-10-18T09:09:41;15.35;;;7.47;;
72209;SDS011;60113;48.762;12.302;2022-10-18T09:20:27;16.73;;;7.55;;
72209;SDS011;60113;48.762;12.302;2022-10-18T09:23:16;11.93;;;7.10;;
72209;SDS011;60113;48.762;12.302;2022-10-18T09:31:27;13.73;;;7.05;;
72209;SDS011;60113;48.762;12.302;2022-10-18T09:37:14;13.57;;;7.30;;
72209;SDS011;60113;48.762;12.302;2022-10-18T09:39:42;14.85;;;8.65;;
72209;SDS011;60113;48.762;12.302;2022-10-18T09:47:23;12.85;;;7.55;;
72209;SDS011;60113;48.762;12.302;2022-10-18T09:49:57;10.05;;;6.90;;
72209;SDS011;60113;48.762;12.302;2022-10-18T09:52:27;12.32;;;6.70;;
72209;SDS011;60113;48.762;12.302;2022-10-18T09:55:02;19.27;;;6.15;;
72209;SDS011;60113;48.762;12.302;2022-10-18T10:00:06;13.05;;;6.40;;
72209;SDS011;60113;48.762;12.302;2022-10-18T10:02:43;10.55;;;6.60;;
72209;SDS011;60113;48.762;12.302;2022-10-18T10:05:11;11.77;;;6.63;;
72209;SDS011;60113;48.762;12.302;2022-10-18T10:07:42;15.93;;;7.88;;
72209;SDS011;60113;48.762;12.302;2022-10-18T10:10:16;15.10;;;6.55;;
72209;SDS011;60113;48.762;12.302;2022-10-18T10:12:46;9.70;;;6.70;;
72209;SDS011;60113;48.762;12.302;2022-10-18T10:15:26;22.05;;;7.40;;
72209;SDS011;60113;48.762;12.302;2022-10-18T10:17:56;7.75;;;5.97;;
72209;SDS011;60113;48.762;12.302;2022-10-18T10:20:44;12.73;;;6.97;;
72209;SDS011;60113;48.762;12.302;2022-10-18T10:23:14;13.13;;;6.82;;
72209;SDS011;60113;48.762;12.302;2022-10-18T10:25:52;15.15;;;6.00;;
72209;SDS011;60113;48.762;12.302;2022-10-18T10:28:25;16.50;;;6.50;;
72209;SDS011;60113;48.762;12.302;2022-10-18T10:30:55;13.38;;;6.10;;
72209;SDS011;60113;48.762;12.302;2022-10-18T10:36:24;10.43;;;6.15;;
72209;SDS011;60113;48.762;12.302;2022-10-18T10:44:16;13.43;;;6.45;;
72209;SDS011;60113;48.762;12.302;2022-10-18T10:46:48;12.00;;;6.50;;
72209;SDS011;60113;48.762;12.302;2022-10-18T10:49:17;13.02;;;6.28;;
72209;SDS011;60113;48.762;12.302;2022-10-18T10:51:45;9.50;;;6.20;;
72209;SDS011;60113;48.762;12.302;2022-10-18T10:54:22;9.65;;;6.28;;
72209;SDS011;60113;48.762;12.302;2022-10-18T10:57:00;19.60;;;6.15;;
72209;SDS011;60113;48.762;12.302;2022-10-18T10:59:29;19.83;;;6.93;;
72209;SDS011;60113;48.762;12.302;2022-10-18T11:04:49;13.25;;;6.97;;
72209;SDS011;60113;48.762;12.302;2022-10-18T11:10:17;15.38;;;6.45;;
72209;SDS011;60113;48.762;12.302;2022-10-18T11:15:51;14.02;;;6.07;;
72209;SDS011;60113;48.762;12.302;2022-10-18T11:18:27;15.65;;;5.95;;
72209;SDS011;60113;48.762;12.302;2022-10-18T11:20:58;9.65;;;5.60;;
72209;SDS011;60113;48.762;12.302;2022-10-18T11:23:41;10.65;;;7.68;;
72209;SDS011;60113;48.762;12.302;2022-10-18T11:28:40;18.38;;;7.30;;
72209;SDS011;60113;48.762;12.302;2022-10-18T11:39:52;13.23;;;6.35;;
72209;SDS011;60113;48.762;12.302;2022-10-18T11:47:39;8.95;;;5.13;;
72209;SDS011;60113;48.762;12.302;2022-10-18T12:01:27;16.42;;;7.35;;
72209;SDS011;60113;48.762;12.302;2022-10-18T12:04:03;18.10;;;6.90;;
72209;SDS011;60113;48.762;12.302;2022-10-18T12:06:33;16.30;;;6.25;;
72209;SDS011;60113;48.762;12.302;2022-10-18T12:09:03;9.88;;;5.60;;
72209;SDS011;60113;48.762;12.302;2022-10-18T12:11:43;13.05;;;6.40;;
72209;SDS011;60113;48.762;12.302;2022-10-18T12:14:36;12.50;;;5.38;;
72209;SDS011;60113;48.762;12.302;2022-10-18T12:17:03;9.80;;;5.30;;
72209;SDS011;60113;48.762;12.302;2022-10-18T12:19:33;15.20;;;5.35;;
72209;SDS011;60113;48.762;12.302;2022-10-18T12:22:13;10.57;;;5.55;;
72209;SDS011;60113;48.762;12.302;2022-10-18T12:24:58;10.43;;;5.57;;
72209;SDS011;60113;48.762;12.302;2022-10-18T12:27:31;10.45;;;5.18;;
72209;SDS011;60113;48.762;12.302;2022-10-18T12:30:28;9.15;;;4.80;;
72209;SDS011;60113;48.762;12.302;2022-10-18T12:33:03;14.23;;;3.70;;
72209;SDS011;60113;48.762;12.302;2022-10-18T12:35:47;16.70;;;3.70;;
72209;SDS011;60113;48.762;12.302;2022-10-18T12:38:24;7.75;;;3.40;;
72209;SDS011;60113;48.762;12.302;2022-10-18T12:40:55;7.47;;;2.90;;
72209;SDS011;60113;48.762;12.302;2022-10-18T12:43:31;11.45;;;2.95;;
72209;SDS011;60113;48.762;12.302;2022-10-18T12:46:03;12.98;;;2.70;;
72209;SDS011;60113;48.762;12.302;2022-10-18T12:48:35;6.80;;;2.83;;
72209;SDS011;60113;48.762;12.302;2022-10-18T12:51:14;10.00;;;3.13;;
72209;SDS011;60113;48.762;12.302;2022-10-18T12:53:43;4.72;;;2.35;;
72209;SDS011;60113;48.762;12.302;2022-10-18T12:56:31;8.88;;;2.38;;
72209;SDS011;60113;48.762;12.302;2022-10-18T13:09:35;6.38;;;2.50;;
72209;SDS011;60113;48.762;12.302;2022-10-18T13:31:20;13.23;;;2.92;;
72209;SDS011;60113;48.762;12.302;2022-10-18T13:33:52;10.40;;;3.22;;
72209;SDS011;60113;48.762;12.302;2022-10-18T13:36:19;8.25;;;2.85;;
72209;SDS011;60113;48.762;12.302;2022-10-18T13:41:22;8.43;;;3.05;;
72209;SDS011;60113;48.762;12.302;2022-10-18T14:08:24;11.48;;;3.40;;
72209;SDS011;60113;48.762;12.302;2022-10-18T14:11:11;9.75;;;2.50;;
72209;SDS011;60113;48.762;12.302;2022-10-18T14:16:35;9.77;;;3.25;;
72209;SDS011;60113;48.762;12.302;2022-10-18T14:19:18;7.88;;;3.08;;
72209;SDS011;60113;48.762;12.302;2022-10-18T14:21:54;8.40;;;2.47;;
72209;SDS011;60113;48.762;12.302;2022-10-18T14:24:28;5.15;;;2.40;;
72209;SDS011;60113;48.762;12.302;2022-10-18T14:29:40;12.10;;;3.10;;
72209;SDS011;60113;48.762;12.302;2022-10-18T14:32:09;9.68;;;2.88;;
72209;SDS011;60113;48.762;12.302;2022-10-18T14:34:44;10.63;;;3.17;;
72209;SDS011;60113;48.762;12.302;2022-10-18T14:37:44;14.48;;;3.45;;
72209;SDS011;60113;48.762;12.302;2022-10-18T14:40:03;9.10;;;3.30;;
72209;SDS011;60113;48.762;12.302;2022-10-18T14:42:29;5.38;;;3.05;;
72209;SDS011;60113;48.762;12.302;2022-10-18T14:44:55;5.53;;;3.33;;
72209;SDS011;60113;48.762;12.302;2022-10-18T14:47:27;10.45;;;3.42;;
72209;SDS011;60113;48.762;12.302;2022-10-18T14:49:55;11.15;;;3.30;;
72209;SDS011;60113;48.762;12.302;2022-10-18T14:52:28;10.48;;;3.75;;
72209;SDS011;60113;48.762;12.302;2022-10-18T14:57:24;9.23;;;3.65;;
72209;SDS011;60113;48.762;12.302;2022-10-18T14:59:54;9.45;;;3.75;;
72209;SDS011;60113;48.762;12.302;2022-10-18T15:02:24;11.23;;;3.80;;
72209;SDS011;60113;48.762;12.302;2022-10-18T15:04:55;12.70;;;3.90;;
72209;SDS011;60113;48.762;12.302;2022-10-18T15:07:21;11.45;;;3.90;;
72209;SDS011;60113;48.762;12.302;2022-10-18T15:09:49;8.00;;;4.00;;
72209;SDS011;60113;48.762;12.302;2022-10-18T15:12:15;8.05;;;3.58;;
72209;SDS011;60113;48.762;12.302;2022-10-18T15:14:42;6.75;;;3.78;;
72209;SDS011;60113;48.762;12.302;2022-10-18T15:17:13;7.60;;;3.28;;
72209;SDS011;60113;48.762;12.302;2022-10-18T15:19:57;17.05;;;7.53;;
72209;SDS011;60113;48.762;12.302;2022-10-18T15:22:27;19.40;;;8.50;;
72209;SDS011;60113;48.762;12.302;2022-10-18T15:27:40;50.22;;;12.18;;
72209;SDS011;60113;48.762;12.302;2022-10-18T15:33:18;27.77;;;11.98;;
72209;SDS011;60113;48.762;12.302;2022-10-18T15:35:47;24.63;;;12.15;;
72209;SDS011;60113;48.762;12.302;2022-10-18T15:38:14;20.40;;;12.15;;
72209;SDS011;60113;48.762;12.302;2022-10-18T15:40:41;28.25;;;13.73;;
72209;SDS011;60113;48.762;12.302;2022-10-18T15:45:55;32.50;;;14.40;;
72209;SDS011;60113;48.762;12.302;2022-10-18T15:50:53;27.02;;;13.18;;
72209;SDS011;60113;48.762;12.302;2022-10-18T15:55:50;24.80;;;12.98;;
72209;SDS011;60113;48.762;12.302;2022-10-18T15:58:42;28.58;;;18.13;;
72209;SDS011;60113;48.762;12.302;2022-10-18T16:01:13;32.65;;;19.13;;
72209;SDS011;60113;48.762;12.302;2022-10-18T16:03:45;33.20;;;18.90;;
72209;SDS011;60113;48.762;12.302;2022-10-18T16:06:12;42.05;;;20.85;;
72209;SDS011;60113;48.762;12.302;2022-10-18T16:08:40;46.72;;;25.50;;
72209;SDS011;60113;48.762;12.302;2022-10-18T16:11:10;47.25;;;26.25;;
72209;SDS011;60113;48.762;12.302;2022-10-18T16:13:42;46.85;;;26.67;;
72209;SDS011;60113;48.762;12.302;2022-10-18T16:16:14;45.33;;;26.08;;
72209;SDS011;60113;48.762;12.302;2022-10-18T16:18:42;57.22;;;31.20;;
72209;SDS011;60113;48.762;12.302;2022-10-18T16:21:12;65.47;;;33.53;;
72209;SDS011;60113;48.762;12.302;2022-10-18T16:23:42;62.90;;;33.95;;
72209;SDS011;60113;48.762;12.302;2022-10-18T16:26:08;64.55;;;32.00;;
72209;SDS011;60113;48.762;12.302;2022-10-18T16:28:36;87.88;;;36.78;;
72209;SDS011;60113;48.762;12.302;2022-10-18T16:31:02;79.53;;;37.75;;
72209;SDS011;60113;48.762;12.302;2022-10-18T16:33:28;87.80;;;38.97;;
72209;SDS011;60113;48.762;12.302;2022-10-18T16:35:55;87.60;;;39.63;;
72209;SDS011;60113;48.762;12.302;2022-10-18T16:38:23;94.97;;;40.63;;
72209;SDS011;60113;48.762;12.302;2022-10-18T16:40:49;104.30;;;43.10;;
72209;SDS011;60113;48.762;12.302;2022-10-18T16:43:15;94.20;;;43.63;;
72209;SDS011;60113;48.762;12.302;2022-10-18T16:45:40;107.15;;;44.72;;
72209;SDS011;60113;48.762;12.302;2022-10-18T16:48:07;79.35;;;38.47;;
72209;SDS011;60113;48.762;12.302;2022-10-18T16:50:38;112.72;;;44.33;;
72209;SDS011;60113;48.762;12.302;2022-10-18T16:53:04;87.85;;;40.63;;
72209;SDS011;60113;48.762;12.302;2022-10-18T16:55:30;96.97;;;44.70;;
72209;SDS011;60113;48.762;12.302;2022-10-18T16:57:56;204.98;;;55.83;;
72209;SDS011;60113;48.762;12.302;2022-10-18T17:00:21;136.38;;;54.55;;
72209;SDS011;60113;48.762;12.302;2022-10-18T17:02:49;155.73;;;61.20;;
72209;SDS011;60113;48.762;12.302;2022-10-18T17:05:18;194.40;;;63.65;;
72209;SDS011;60113;48.762;12.302;2022-10-18T17:07:44;143.25;;;56.58;;
72209;SDS011;60113;48.762;12.302;2022-10-18T17:10:12;262.65;;;64.10;;
72209;SDS011;60113;48.762;12.302;2022-10-18T17:12:39;154.43;;;57.28;;
72209;SDS011;60113;48.762;12.302;2022-10-18T17:15:05;131.75;;;51.38;;
72209;SDS011;60113;48.762;12.302;2022-10-18T17:17:32;107.72;;;46.05;;
72209;SDS011;60113;48.762;12.302;2022-10-18T17:20:05;97.65;;;41.85;;
72209;SDS011;60113;48.762;12.302;2022-10-18T17:22:32;119.32;;;45.33;;
72209;SDS011;60113;48.762;12.302;2022-10-18T17:24:59;151.77;;;49.35;;